createdAt,value
2023-01-21T00:00:59.403Z,8.30
2023-01-21T00:03:26.049Z,7.43
2023-01-21T00:05:52.699Z,7.23
2023-01-21T00:08:19.346Z,7.30
2023-01-21T00:10:46.112Z,6.93
2023-01-21T00:13:12.716Z,7.20
2023-01-21T00:15:39.360Z,6.60
2023-01-21T00:18:06.011Z,7.73
2023-01-21T00:20:32.875Z,7.47
2023-01-21T00:22:59.675Z,7.10
2023-01-21T00:25:26.364Z,7.93
2023-01-21T00:27:52.952Z,7.23
2023-01-21T00:30:19.774Z,6.53
2023-01-21T00:32:46.547Z,6.77
2023-01-21T00:35:13.278Z,6.17
2023-01-21T00:37:39.863Z,5.83
2023-01-21T00:40:07.044Z,6.80
2023-01-21T00:42:33.604Z,6.70
2023-01-21T00:45:00.200Z,6.27
2023-01-21T00:47:27.001Z,6.47
2023-01-21T00:49:53.605Z,6.20
2023-01-21T00:52:20.180Z,6.37
2023-01-21T00:54:46.739Z,6.37
2023-01-21T00:57:13.939Z,5.97
2023-01-21T00:59:40.844Z,6.40
2023-01-21T01:02:08.908Z,6.70
2023-01-21T01:04:35.774Z,5.87
2023-01-21T01:07:02.422Z,6.73
2023-01-21T01:09:29.160Z,6.23
2023-01-21T01:11:55.984Z,6.67
2023-01-21T01:14:22.960Z,6.70
2023-01-21T01:16:50.035Z,7.40
2023-01-21T01:19:17.027Z,6.20
2023-01-21T01:21:43.853Z,5.63
2023-01-21T01:24:10.522Z,5.23
2023-01-21T01:26:37.264Z,5.10
2023-01-21T01:29:05.061Z,5.30
2023-01-21T01:31:32.163Z,5.43
2023-01-21T01:33:59.121Z,6.33
2023-01-21T01:36:25.868Z,7.10
2023-01-21T01:38:53.728Z,7.00
2023-01-21T01:41:25.484Z,7.73
2023-01-21T01:44:00.558Z,7.40
2023-01-21T01:46:33.518Z,7.83
2023-01-21T01:49:14.495Z,8.10
2023-01-21T01:51:54.392Z,7.53
2023-01-21T01:54:28.349Z,7.83
2023-01-21T01:56:59.990Z,7.70
2023-01-21T01:59:27.724Z,7.37
2023-01-21T02:01:55.753Z,7.60
2023-01-21T02:04:26.127Z,8.27
2023-01-21T02:06:55.503Z,8.03
2023-01-21T02:09:22.491Z,7.90
2023-01-21T02:11:49.405Z,8.53
2023-01-21T02:14:16.704Z,7.73
2023-01-21T02:16:57.516Z,8.27
2023-01-21T02:19:40.336Z,8.63
2023-01-21T02:22:26.176Z,8.67
2023-01-21T02:25:30.485Z,7.63
2023-01-21T02:28:27.223Z,8.93
2023-01-21T02:31:25.619Z,9.47
2023-01-21T02:34:13.639Z,8.20
2023-01-21T02:37:04.589Z,8.37
2023-01-21T02:39:49.482Z,8.77
2023-01-21T02:42:48.212Z,9.20
2023-01-21T02:45:31.425Z,9.67
2023-01-21T02:48:07.818Z,9.77
2023-01-21T02:50:44.601Z,9.57
2023-01-21T02:53:37.613Z,9.50
2023-01-21T02:56:13.928Z,9.97
2023-01-21T02:58:49.908Z,8.90
2023-01-21T03:01:45.647Z,9.37
2023-01-21T03:04:39.631Z,9.63
2023-01-21T03:07:24.017Z,9.13
2023-01-21T03:09:50.817Z,9.43
2023-01-21T03:12:24.883Z,10.10
2023-01-21T03:15:29.049Z,9.23
2023-01-21T03:18:15.323Z,8.27
2023-01-21T03:20:49.228Z,9.27
2023-01-21T03:23:22.479Z,8.70
2023-01-21T03:25:50.886Z,9.20
2023-01-21T03:28:24.065Z,9.83
2023-01-21T03:31:01.001Z,8.63
2023-01-21T03:33:32.676Z,9.00
2023-01-21T03:36:04.780Z,8.60
2023-01-21T03:38:38.356Z,8.57
2023-01-21T03:41:14.206Z,7.87
2023-01-21T03:43:40.907Z,7.53
2023-01-21T03:46:15.866Z,8.57
2023-01-21T03:48:51.721Z,8.13
2023-01-21T03:51:24.063Z,8.03
2023-01-21T03:53:57.267Z,7.47
2023-01-21T03:56:27.924Z,7.23
2023-01-21T03:58:54.543Z,6.80
2023-01-21T04:01:21.568Z,6.83
2023-01-21T04:03:48.605Z,7.40
2023-01-21T04:06:24.393Z,6.40
2023-01-21T04:08:51.111Z,6.43
2023-01-21T04:11:17.985Z,6.33
2023-01-21T04:13:47.591Z,6.37
2023-01-21T04:16:14.211Z,5.73
2023-01-21T04:18:40.866Z,6.00
2023-01-21T04:21:07.615Z,5.67
2023-01-21T04:23:34.239Z,5.30
2023-01-21T04:26:01.035Z,5.93
2023-01-21T04:28:27.600Z,5.17
2023-01-21T04:30:54.166Z,5.33
2023-01-21T04:33:20.797Z,6.03
2023-01-21T04:35:47.382Z,5.70
2023-01-21T04:38:15.742Z,5.20
2023-01-21T04:40:42.549Z,5.53
2023-01-21T04:43:09.141Z,5.70
2023-01-21T04:45:35.807Z,5.57
2023-01-21T04:48:02.385Z,4.90
2023-01-21T04:50:28.940Z,5.83
2023-01-21T04:52:55.561Z,5.20
2023-01-21T04:55:23.648Z,6.23
2023-01-21T04:57:51.388Z,4.93
2023-01-21T05:00:18.615Z,5.10
2023-01-21T05:02:45.528Z,5.60
2023-01-21T05:05:12.104Z,5.27
2023-01-21T05:07:38.699Z,4.90
2023-01-21T05:10:05.695Z,5.37
2023-01-21T05:12:32.405Z,5.47
2023-01-21T05:14:59.074Z,5.67
2023-01-21T05:17:26.390Z,5.13
2023-01-21T05:19:53.013Z,5.20
2023-01-21T05:22:19.643Z,5.43
2023-01-21T05:24:46.224Z,5.50
2023-01-21T05:27:12.847Z,5.40
2023-01-21T05:29:40.108Z,5.30
2023-01-21T05:32:06.715Z,5.60
2023-01-21T05:34:33.430Z,5.53
2023-01-21T05:36:59.976Z,5.53
2023-01-21T05:39:26.544Z,5.50
2023-01-21T05:41:53.114Z,6.20
2023-01-21T05:44:19.682Z,5.37
2023-01-21T05:46:46.256Z,5.53
2023-01-21T05:49:12.941Z,5.93
2023-01-21T05:51:39.536Z,5.97
2023-01-21T05:54:06.125Z,5.93
2023-01-21T05:56:32.751Z,5.27
2023-01-21T05:58:59.397Z,5.50
2023-01-21T06:01:25.974Z,5.50
2023-01-21T06:03:52.660Z,5.83
2023-01-21T06:06:19.228Z,6.23
2023-01-21T06:08:45.792Z,6.50
2023-01-21T06:11:12.374Z,6.93
2023-01-21T06:13:38.942Z,6.17
2023-01-21T06:16:05.695Z,5.83
2023-01-21T06:18:32.322Z,6.23
2023-01-21T06:21:00.441Z,6.83
2023-01-21T06:23:27.533Z,6.60
2023-01-21T06:25:54.131Z,7.17
2023-01-21T06:28:20.837Z,7.30
2023-01-21T06:30:47.567Z,7.10
2023-01-21T06:33:14.208Z,7.30
2023-01-21T06:35:40.778Z,10.37
2023-01-21T06:38:07.380Z,8.10
2023-01-21T06:40:33.965Z,9.03
2023-01-21T06:43:01.085Z,8.23
2023-01-21T06:45:28.288Z,8.63
2023-01-21T06:47:54.831Z,9.10
2023-01-21T06:50:21.761Z,9.70
2023-01-21T06:52:49.425Z,9.17
2023-01-21T06:55:16.920Z,9.60
2023-01-21T06:57:44.550Z,9.63
2023-01-21T07:00:12.394Z,9.13
2023-01-21T07:02:39.072Z,9.77
2023-01-21T07:05:06.310Z,9.77
2023-01-21T07:07:32.901Z,9.97
2023-01-21T07:09:59.571Z,9.97
2023-01-21T07:12:26.143Z,9.73
2023-01-21T07:14:52.809Z,9.13
2023-01-21T07:17:19.438Z,9.33
2023-01-21T07:19:46.003Z,9.63
2023-01-21T07:22:12.563Z,10.70
2023-01-21T07:24:39.301Z,10.30
2023-01-21T07:27:06.174Z,10.60
2023-01-21T07:29:32.805Z,11.67
2023-01-21T07:31:59.425Z,10.97
2023-01-21T07:34:26.117Z,11.20
2023-01-21T07:36:52.666Z,10.87
2023-01-21T07:39:19.261Z,11.10
2023-01-21T07:41:46.122Z,10.10
2023-01-21T07:44:12.832Z,10.60
2023-01-21T07:46:39.532Z,10.70
2023-01-21T07:49:06.141Z,10.30
2023-01-21T07:51:32.721Z,9.97
2023-01-21T07:53:59.348Z,10.30
2023-01-21T07:56:26.875Z,10.17
2023-01-21T07:58:53.547Z,9.33
2023-01-21T08:01:20.188Z,10.27
2023-01-21T08:03:46.821Z,9.83
2023-01-21T08:06:13.423Z,9.77
2023-01-21T08:08:39.964Z,9.20
2023-01-21T08:11:06.538Z,8.63
2023-01-21T08:13:33.153Z,9.43
2023-01-21T08:15:59.763Z,9.70
2023-01-21T08:18:26.392Z,9.07
2023-01-21T08:21:00.536Z,8.73
2023-01-21T08:23:27.319Z,9.53
2023-01-21T08:25:54.630Z,9.07
2023-01-21T08:28:22.485Z,9.13
2023-01-21T08:30:49.154Z,8.23
2023-01-21T08:33:15.799Z,8.70
2023-01-21T08:35:42.627Z,9.37
2023-01-21T08:38:09.253Z,8.63
2023-01-21T08:40:35.912Z,8.27
2023-01-21T08:43:04.620Z,8.73
2023-01-21T08:45:31.511Z,8.87
2023-01-21T08:47:58.159Z,9.13
2023-01-21T08:50:24.792Z,8.67
2023-01-21T08:52:53.047Z,9.10
2023-01-21T08:55:20.608Z,9.20
2023-01-21T08:57:51.941Z,9.23
2023-01-21T09:00:19.563Z,8.50
2023-01-21T09:02:46.163Z,9.17
2023-01-21T09:05:12.737Z,9.23
2023-01-21T09:07:39.335Z,9.00
2023-01-21T09:10:06.676Z,8.07
2023-01-21T09:12:33.557Z,8.37
2023-01-21T09:15:00.221Z,8.57
2023-01-21T09:17:26.835Z,9.20
2023-01-21T09:19:55.425Z,9.07
2023-01-21T09:22:22.208Z,8.47
2023-01-21T09:24:48.782Z,8.53
2023-01-21T09:27:15.374Z,8.30
2023-01-21T09:29:42.019Z,8.17
2023-01-21T09:32:09.773Z,9.20
2023-01-21T09:34:36.334Z,8.40
2023-01-21T09:37:04.944Z,8.80
2023-01-21T09:39:31.500Z,9.07
2023-01-21T09:41:58.304Z,9.10
2023-01-21T09:44:35.229Z,9.33
2023-01-21T09:47:24.469Z,8.87
2023-01-21T09:49:58.404Z,9.10
2023-01-21T09:52:48.387Z,9.50
2023-01-21T09:55:19.044Z,8.90
2023-01-21T09:58:07.126Z,10.03
2023-01-21T10:00:53.100Z,10.10
2023-01-21T10:03:33.464Z,10.93
2023-01-21T10:06:30.879Z,10.20
2023-01-21T10:09:49.910Z,9.93
2023-01-21T10:12:50.609Z,10.47
2023-01-21T10:15:35.373Z,9.53
2023-01-21T10:18:20.376Z,9.40
2023-01-21T10:21:04.897Z,8.57
2023-01-21T10:23:42.780Z,9.37
2023-01-21T10:26:12.895Z,8.57
2023-01-21T10:28:44.145Z,9.37
2023-01-21T10:31:27.190Z,9.67
2023-01-21T10:33:54.651Z,8.67
2023-01-21T10:36:47.638Z,8.93
2023-01-21T10:39:28.841Z,9.07
2023-01-21T10:42:14.084Z,8.77
2023-01-21T10:45:10.025Z,9.27
2023-01-21T10:47:49.071Z,9.00
2023-01-21T10:50:26.736Z,8.53
2023-01-21T10:53:00.412Z,8.20
2023-01-21T10:55:31.996Z,8.73
2023-01-21T10:58:09.462Z,9.27
2023-01-21T11:00:47.422Z,8.47
2023-01-21T11:03:20.008Z,8.30
2023-01-21T11:05:49.136Z,8.97
2023-01-21T11:08:22.534Z,8.10
2023-01-21T11:10:53.288Z,8.27
2023-01-21T11:13:19.884Z,8.83
2023-01-21T11:15:52.527Z,8.90
2023-01-21T11:18:30.668Z,8.43
2023-01-21T11:21:04.131Z,8.73
2023-01-21T11:23:34.642Z,8.80
2023-01-21T11:26:04.614Z,8.20
2023-01-21T11:28:31.447Z,8.57
2023-01-21T11:31:24.840Z,8.47
2023-01-21T11:33:52.650Z,9.07
2023-01-21T11:36:21.429Z,8.37
2023-01-21T11:39:01.775Z,7.57
2023-01-21T11:41:28.643Z,8.60
2023-01-21T11:44:07.898Z,7.87
2023-01-21T11:46:39.718Z,7.87
2023-01-21T11:49:09.296Z,8.10
2023-01-21T11:51:38.215Z,7.23
2023-01-21T11:54:25.038Z,7.60
2023-01-21T11:56:57.759Z,6.47
2023-01-21T11:59:34.538Z,7.90
2023-01-21T12:02:10.420Z,7.50
2023-01-21T12:04:37.572Z,7.53
2023-01-21T12:07:05.409Z,6.67
2023-01-21T12:09:32.087Z,6.00
2023-01-21T12:12:17.099Z,5.80
2023-01-21T12:14:53.430Z,5.40
2023-01-21T12:18:11.447Z,5.83
2023-01-21T12:21:05.161Z,5.13
2023-01-21T12:23:42.477Z,5.77
2023-01-21T12:26:33.816Z,5.40
2023-01-21T12:29:33.719Z,4.93
2023-01-21T12:32:23.635Z,4.57
2023-01-21T12:35:12.414Z,4.90
2023-01-21T12:37:49.078Z,4.67
2023-01-21T12:41:01.667Z,4.43
2023-01-21T12:43:36.553Z,4.10
2023-01-21T12:46:27.498Z,4.37
2023-01-21T12:49:02.364Z,3.87
2023-01-21T12:51:42.509Z,3.50
2023-01-21T12:54:27.554Z,4.27
2023-01-21T12:57:23.472Z,4.33
2023-01-21T12:59:55.475Z,3.90
2023-01-21T13:02:35.644Z,3.87
2023-01-21T13:05:30.860Z,4.20
2023-01-21T13:08:29.999Z,3.10
2023-01-21T13:11:04.902Z,3.47
2023-01-21T13:14:06.258Z,3.57
2023-01-21T13:16:36.504Z,3.90
2023-01-21T13:19:03.182Z,4.00
2023-01-21T13:21:44.103Z,4.27
2023-01-21T13:24:39.103Z,3.87
2023-01-21T13:27:22.618Z,3.53
2023-01-21T13:30:16.422Z,4.07
2023-01-21T13:32:56.723Z,3.50
2023-01-21T13:35:33.578Z,3.20
2023-01-21T13:38:09.790Z,3.30
2023-01-21T13:40:45.127Z,3.73
2023-01-21T13:43:34.279Z,3.40
2023-01-21T13:46:39.500Z,3.50
2023-01-21T13:49:15.106Z,3.90
2023-01-21T13:52:04.034Z,3.57
2023-01-21T13:55:09.828Z,3.27
2023-01-21T13:57:52.982Z,3.40
2023-01-21T14:01:08.577Z,3.37
2023-01-21T14:03:44.161Z,3.43
2023-01-21T14:06:16.497Z,3.37
2023-01-21T14:08:56.876Z,3.50
2023-01-21T14:11:34.122Z,3.47
2023-01-21T14:14:36.487Z,3.60
2023-01-21T14:17:32.630Z,3.03
2023-01-21T14:20:08.132Z,2.63
2023-01-21T14:23:06.929Z,2.70
2023-01-21T14:26:09.751Z,2.80
2023-01-21T14:28:58.455Z,2.50
2023-01-21T14:31:36.958Z,2.60
2023-01-21T14:34:15.649Z,2.20
2023-01-21T14:37:05.506Z,2.07
2023-01-21T14:39:57.848Z,2.30
2023-01-21T14:42:40.869Z,2.10
2023-01-21T14:45:08.329Z,1.70
2023-01-21T14:47:34.838Z,1.90
2023-01-21T14:50:01.581Z,2.10
2023-01-21T14:52:31.771Z,2.13
2023-01-21T14:54:59.346Z,1.50
2023-01-21T14:57:31.881Z,1.83
2023-01-21T15:00:13.245Z,1.83
2023-01-21T15:02:45.900Z,1.83
2023-01-21T15:05:27.994Z,2.10
2023-01-21T15:08:05.688Z,2.10
2023-01-21T15:10:36.285Z,1.80
2023-01-21T15:13:25.910Z,2.10
2023-01-21T15:16:07.547Z,2.10
2023-01-21T15:18:45.310Z,1.50
2023-01-21T15:21:33.525Z,1.90
2023-01-21T15:24:18.726Z,1.60
2023-01-21T15:27:23.493Z,1.80
2023-01-21T15:29:56.860Z,1.73
2023-01-21T15:32:37.937Z,1.27
2023-01-21T15:35:36.006Z,1.60
2023-01-21T15:38:04.340Z,1.83
2023-01-21T15:40:44.207Z,1.53
2023-01-21T15:43:38.449Z,1.80
2023-01-21T15:46:25.191Z,2.10
2023-01-21T15:49:05.408Z,1.77
2023-01-21T15:52:12.312Z,2.30
2023-01-21T15:54:50.481Z,1.90
2023-01-21T15:58:06.625Z,2.10
2023-01-21T16:00:38.899Z,2.87
2023-01-21T16:03:51.812Z,2.00
2023-01-21T16:06:26.160Z,2.10
2023-01-21T16:09:03.177Z,1.90
2023-01-21T16:11:54.034Z,2.23
2023-01-21T16:14:46.341Z,2.50
2023-01-21T16:17:28.436Z,2.63
2023-01-21T16:19:58.346Z,4.30
2023-01-21T16:22:30.064Z,3.93
2023-01-21T16:25:04.541Z,4.80
2023-01-21T16:27:32.569Z,2.80
2023-01-21T16:30:01.981Z,2.40
2023-01-21T16:32:30.856Z,3.37
2023-01-21T16:34:57.809Z,2.40
2023-01-21T16:37:26.630Z,2.47
2023-01-21T16:39:55.323Z,2.57
2023-01-21T16:42:32.897Z,3.80
2023-01-21T16:45:00.312Z,3.33
2023-01-21T16:47:36.505Z,4.20
2023-01-21T16:50:05.549Z,2.83
2023-01-21T16:52:32.464Z,2.70
2023-01-21T16:54:59.068Z,3.43
2023-01-21T16:57:31.559Z,2.60
2023-01-21T16:59:59.030Z,2.40
2023-01-21T17:02:31.468Z,2.90
2023-01-21T17:05:00.203Z,2.50
2023-01-21T17:07:44.053Z,2.27
2023-01-21T17:10:33.886Z,2.80
2023-01-21T17:13:03.521Z,2.30
2023-01-21T17:15:38.417Z,2.50
2023-01-21T17:18:09.203Z,2.23
2023-01-21T17:20:41.306Z,2.37
2023-01-21T17:23:21.692Z,2.80
2023-01-21T17:25:56.837Z,2.53
2023-01-21T17:28:57.730Z,2.43
2023-01-21T17:31:44.020Z,3.53
2023-01-21T17:34:26.460Z,2.50
2023-01-21T17:36:54.534Z,2.80
2023-01-21T17:39:57.689Z,2.80
2023-01-21T17:42:28.945Z,3.13
2023-01-21T17:44:58.477Z,2.50
2023-01-21T17:47:30.143Z,3.43
2023-01-21T17:50:24.524Z,3.20
2023-01-21T17:53:03.287Z,3.10
2023-01-21T17:55:40.395Z,3.87
2023-01-21T17:58:31.842Z,3.33
2023-01-21T18:01:01.652Z,3.53
2023-01-21T18:03:28.255Z,2.50
2023-01-21T18:05:55.547Z,3.27
2023-01-21T18:08:23.049Z,2.73
2023-01-21T18:10:50.647Z,3.40
2023-01-21T18:13:19.694Z,3.47
2023-01-21T18:15:51.229Z,3.03
2023-01-21T18:18:20.737Z,3.53
2023-01-21T18:20:47.389Z,2.60
2023-01-21T18:23:15.177Z,2.83
2023-01-21T18:25:42.483Z,3.40
2023-01-21T18:28:27.597Z,2.80
2023-01-21T18:30:56.207Z,3.40
2023-01-21T18:33:24.018Z,3.27
2023-01-21T18:35:51.888Z,3.17
2023-01-21T18:38:30.251Z,2.77
2023-01-21T18:40:58.334Z,3.10
2023-01-21T18:43:25.708Z,3.00
2023-01-21T18:45:54.141Z,2.77
2023-01-21T18:48:27.448Z,3.43
2023-01-21T18:50:54.091Z,3.40
2023-01-21T18:53:20.762Z,3.43
2023-01-21T18:55:50.939Z,2.70
2023-01-21T18:58:17.561Z,2.77
2023-01-21T19:00:44.280Z,2.70
2023-01-21T19:03:14.972Z,2.20
2023-01-21T19:05:45.141Z,2.80
2023-01-21T19:08:15.753Z,2.43
2023-01-21T19:10:42.312Z,2.30
2023-01-21T19:13:12.255Z,2.40
2023-01-21T19:15:39.119Z,3.10
2023-01-21T19:18:10.862Z,2.70
2023-01-21T19:20:40.284Z,2.80
2023-01-21T19:23:12.363Z,2.63
2023-01-21T19:25:38.926Z,2.80
2023-01-21T19:28:05.532Z,2.30
2023-01-21T19:30:32.703Z,2.47
2023-01-21T19:33:02.743Z,2.90
2023-01-21T19:35:39.946Z,2.80
2023-01-21T19:38:12.217Z,1.93
2023-01-21T19:40:38.946Z,2.60
2023-01-21T19:43:05.718Z,2.30
2023-01-21T19:45:32.480Z,2.63
2023-01-21T19:47:59.030Z,2.40
2023-01-21T19:50:27.632Z,3.10
2023-01-21T19:52:54.893Z,2.63
2023-01-21T19:55:24.119Z,2.50
2023-01-21T19:58:15.666Z,2.40
2023-01-21T20:00:42.312Z,2.60
2023-01-21T20:03:12.240Z,2.50
2023-01-21T20:05:39.274Z,2.47
2023-01-21T20:08:06.379Z,3.00
2023-01-21T20:10:33.220Z,2.90
2023-01-21T20:12:59.756Z,2.73
2023-01-21T20:15:31.588Z,2.67
2023-01-21T20:18:00.276Z,2.93
2023-01-21T20:20:32.743Z,2.80
2023-01-21T20:23:00.571Z,3.00
2023-01-21T20:25:38.255Z,3.20
2023-01-21T20:28:23.332Z,3.43
2023-01-21T20:30:51.318Z,3.40
2023-01-21T20:33:20.631Z,3.07
2023-01-21T20:35:52.059Z,2.70
2023-01-21T20:38:25.784Z,3.63
2023-01-21T20:40:52.657Z,3.73
2023-01-21T20:43:20.431Z,3.87
2023-01-21T20:45:49.224Z,3.60
2023-01-21T20:48:32.972Z,4.00
2023-01-21T20:51:00.316Z,3.23
2023-01-21T20:53:27.341Z,3.30
2023-01-21T20:55:55.746Z,3.53
2023-01-21T20:58:22.344Z,3.20
2023-01-21T21:00:49.734Z,3.47
2023-01-21T21:03:18.092Z,3.50
2023-01-21T21:05:46.256Z,3.27
2023-01-21T21:08:21.269Z,3.10
2023-01-21T21:10:50.706Z,3.37
2023-01-21T21:13:17.427Z,2.77
2023-01-21T21:15:46.526Z,3.20
2023-01-21T21:18:14.384Z,3.43
2023-01-21T21:20:41.419Z,3.37
2023-01-21T21:23:13.711Z,3.13
2023-01-21T21:25:45.998Z,3.10
2023-01-21T21:28:14.403Z,2.80
2023-01-21T21:30:41.147Z,3.43
2023-01-21T21:33:12.049Z,2.97
2023-01-21T21:35:44.217Z,2.77
2023-01-21T21:38:21.653Z,3.00
2023-01-21T21:40:51.238Z,2.60
2023-01-21T21:43:35.507Z,2.67
2023-01-21T21:46:28.158Z,2.67
2023-01-21T21:48:54.735Z,2.67
2023-01-21T21:51:22.468Z,2.53
2023-01-21T21:53:49.342Z,2.27
2023-01-21T21:56:21.203Z,2.40
2023-01-21T21:58:48.662Z,2.03
2023-01-21T22:01:20.897Z,2.60
2023-01-21T22:03:48.148Z,2.57
2023-01-21T22:06:16.871Z,3.07
2023-01-21T22:08:43.759Z,2.47
2023-01-21T22:11:14.100Z,2.60
2023-01-21T22:13:43.265Z,2.30
2023-01-21T22:16:18.794Z,3.27
2023-01-21T22:18:45.920Z,2.47
2023-01-21T22:21:29.653Z,2.77
2023-01-21T22:23:56.420Z,2.40
2023-01-21T22:26:24.986Z,2.70
2023-01-21T22:28:51.667Z,2.60
2023-01-21T22:31:24.043Z,2.03
2023-01-21T22:33:51.755Z,2.30
2023-01-21T22:36:20.871Z,2.37
2023-01-21T22:38:48.023Z,2.40
2023-01-21T22:41:16.681Z,2.50
2023-01-21T22:43:44.812Z,2.30
2023-01-21T22:46:13.237Z,2.70
2023-01-21T22:48:41.382Z,2.50
2023-01-21T22:51:10.949Z,2.77
2023-01-21T22:53:38.781Z,2.57
2023-01-21T22:56:05.861Z,2.37
2023-01-21T22:58:33.836Z,2.63
2023-01-21T23:01:01.432Z,2.93
2023-01-21T23:03:28.999Z,2.20
2023-01-21T23:06:02.837Z,2.17
2023-01-21T23:08:29.643Z,2.37
2023-01-21T23:11:07.436Z,2.50
2023-01-21T23:13:34.995Z,2.10
2023-01-21T23:16:02.065Z,2.37
2023-01-21T23:18:29.353Z,2.50
2023-01-21T23:20:56.315Z,2.70
2023-01-21T23:23:24.658Z,2.40
2023-01-21T23:25:51.304Z,2.50
2023-01-21T23:28:17.883Z,2.70
2023-01-21T23:30:44.623Z,2.90
2023-01-21T23:33:12.000Z,2.23
2023-01-21T23:35:38.557Z,2.10
2023-01-21T23:38:05.182Z,2.70
2023-01-21T23:40:31.727Z,2.17
2023-01-21T23:42:58.327Z,2.40
2023-01-21T23:45:25.007Z,2.40
2023-01-21T23:47:51.641Z,2.43
2023-01-21T23:50:18.536Z,2.47
2023-01-21T23:52:45.265Z,2.50
2023-01-21T23:55:11.858Z,2.53
2023-01-21T23:57:38.431Z,2.30
